createdAt,value
2024-01-16T00:00:34.530Z,97998.75
2024-01-16T00:03:03.036Z,97991.34
2024-01-16T00:05:29.607Z,97996.38
2024-01-16T00:07:56.209Z,98000.13
2024-01-16T00:10:24.313Z,97994.78
2024-01-16T00:12:50.710Z,97994.03
2024-01-16T00:15:17.470Z,97991.44
2024-01-16T00:17:45.603Z,98006.41
2024-01-16T00:20:12.450Z,98000.81
2024-01-16T00:22:39.062Z,98010.19
2024-01-16T00:25:06.632Z,98014.22
2024-01-16T00:27:33.146Z,98011.56
2024-01-16T00:29:59.609Z,98014.53
2024-01-16T00:32:26.222Z,98014.03
2024-01-16T00:34:54.146Z,98018.03
2024-01-16T00:37:20.729Z,98012.69
2024-01-16T00:39:47.591Z,98026.06
2024-01-16T00:42:14.032Z,98035.38
2024-01-16T00:44:40.588Z,98026.84
2024-01-16T00:47:07.177Z,98031.69
2024-01-16T00:49:33.851Z,98028.78
2024-01-16T00:52:01.720Z,98029.00
2024-01-16T00:54:28.148Z,98029.59
2024-01-16T00:56:54.585Z,98038.97
2024-01-16T00:59:21.345Z,98044.06
2024-01-16T01:01:48.070Z,98046.53
2024-01-16T01:04:14.521Z,98045.53
2024-01-16T01:06:41.020Z,98045.78
2024-01-16T01:09:08.819Z,98051.13
2024-01-16T01:11:35.632Z,98052.22
2024-01-16T01:14:02.098Z,98062.09
2024-01-16T01:16:28.616Z,98068.25
2024-01-16T01:18:55.272Z,98062.16
2024-01-16T01:21:21.840Z,98070.97
2024-01-16T01:23:48.408Z,98078.69
2024-01-16T01:26:16.366Z,98082.66
2024-01-16T01:28:42.884Z,98078.19
2024-01-16T01:31:09.966Z,98080.53
2024-01-16T01:33:36.727Z,98081.13
2024-01-16T01:36:03.525Z,98082.47
2024-01-16T01:38:30.072Z,98079.31
2024-01-16T01:40:56.939Z,98085.50
2024-01-16T01:43:26.449Z,98071.91
2024-01-16T01:46:09.437Z,98089.03
2024-01-16T01:48:37.090Z,98079.47
2024-01-16T01:51:03.961Z,98097.63
2024-01-16T01:53:32.095Z,98095.81
2024-01-16T01:55:58.904Z,98098.22
2024-01-16T01:58:27.192Z,98111.34
2024-01-16T02:00:53.777Z,98110.22
2024-01-16T02:03:22.555Z,98113.44
2024-01-16T02:05:50.151Z,98128.09
2024-01-16T02:08:16.937Z,98122.72
2024-01-16T02:10:46.448Z,98120.06
2024-01-16T02:13:13.053Z,98130.72
2024-01-16T02:15:40.877Z,98134.72
2024-01-16T02:18:07.749Z,98134.94
2024-01-16T02:20:34.407Z,98145.09
2024-01-16T02:23:04.878Z,98131.94
2024-01-16T02:25:33.193Z,98135.72
2024-01-16T02:28:01.057Z,98130.09
2024-01-16T02:30:27.637Z,98127.41
2024-01-16T02:32:54.170Z,98128.00
2024-01-16T02:35:20.863Z,98133.06
2024-01-16T02:37:47.765Z,98131.16
2024-01-16T02:40:14.306Z,98138.09
2024-01-16T02:42:42.187Z,98146.09
2024-01-16T02:45:09.439Z,98138.63
2024-01-16T02:47:36.034Z,98146.09
2024-01-16T02:50:03.538Z,98154.69
2024-01-16T02:52:30.055Z,98153.31
2024-01-16T02:54:56.452Z,98160.81
2024-01-16T02:57:22.883Z,98156.56
2024-01-16T02:59:50.744Z,98156.84
2024-01-16T03:02:17.238Z,98163.56
2024-01-16T03:04:43.775Z,98159.56
2024-01-16T03:07:10.519Z,98161.69
2024-01-16T03:09:37.088Z,98163.56
2024-01-16T03:12:04.076Z,98166.75
2024-01-16T03:14:30.619Z,98170.44
2024-01-16T03:16:58.461Z,98173.88
2024-01-16T03:19:24.887Z,98172.53
2024-01-16T03:21:51.342Z,98172.00
2024-01-16T03:24:17.953Z,98177.34
2024-01-16T03:26:44.433Z,98166.97
2024-01-16T03:29:11.459Z,98184.56
2024-01-16T03:31:38.188Z,98180.00
2024-01-16T03:34:06.059Z,98184.28
2024-01-16T03:36:32.533Z,98186.69
2024-01-16T03:38:58.990Z,98192.25
2024-01-16T03:41:25.468Z,98186.09
2024-01-16T03:43:52.091Z,98187.38
2024-01-16T03:46:18.508Z,98191.94
2024-01-16T03:48:45.057Z,98198.38
2024-01-16T03:51:13.097Z,98198.66
2024-01-16T03:53:39.524Z,98198.88
2024-01-16T03:56:06.352Z,98199.94
2024-01-16T03:58:33.048Z,98201.59
2024-01-16T04:00:59.678Z,98196.50
2024-01-16T04:03:26.602Z,98200.53
2024-01-16T04:05:53.466Z,98204.22
2024-01-16T04:08:21.749Z,98198.38
2024-01-16T04:10:48.267Z,98201.03
2024-01-16T04:13:14.812Z,98200.53
2024-01-16T04:15:41.435Z,98209.84
2024-01-16T04:18:08.129Z,98209.88
2024-01-16T04:20:34.625Z,98210.41
2024-01-16T04:23:01.087Z,98204.84
2024-01-16T04:25:28.909Z,98208.59
2024-01-16T04:27:55.322Z,98208.59
2024-01-16T04:30:21.878Z,98208.84
2024-01-16T04:32:48.541Z,98203.50
2024-01-16T04:35:15.164Z,98210.97
2024-01-16T04:37:41.872Z,98212.31
2024-01-16T04:40:09.186Z,98212.00
2024-01-16T04:42:36.917Z,98210.13
2024-01-16T04:45:03.486Z,98215.53
2024-01-16T04:47:30.139Z,98200.56
2024-01-16T04:49:57.109Z,98200.03
2024-01-16T04:52:23.580Z,98194.44
2024-01-16T04:54:50.295Z,98200.03
2024-01-16T04:57:17.000Z,98204.31
2024-01-16T04:59:44.766Z,98203.25
2024-01-16T05:02:11.617Z,98212.00
2024-01-16T05:04:38.579Z,98199.19
2024-01-16T05:07:05.318Z,98201.59
2024-01-16T05:09:31.764Z,98197.34
2024-01-16T05:11:58.482Z,98193.34
2024-01-16T05:14:24.996Z,98195.75
2024-01-16T05:16:53.071Z,98195.22
2024-01-16T05:19:19.767Z,98185.88
2024-01-16T05:21:46.368Z,98187.22
2024-01-16T05:24:12.853Z,98190.44
2024-01-16T05:26:39.376Z,98182.19
2024-01-16T05:29:05.799Z,98188.84
2024-01-16T05:31:32.536Z,98200.88
2024-01-16T05:34:00.622Z,98192.88
2024-01-16T05:36:27.921Z,98195.28
2024-01-16T05:38:54.520Z,98193.69
2024-01-16T05:41:21.259Z,98188.13
2024-01-16T05:43:47.692Z,98191.06
2024-01-16T05:46:14.108Z,98183.53
2024-01-16T05:48:40.695Z,98183.28
2024-01-16T05:51:08.571Z,98193.44
2024-01-16T05:53:35.447Z,98194.53
2024-01-16T05:56:01.945Z,98196.38
2024-01-16T05:58:28.489Z,98189.44
2024-01-16T06:00:55.141Z,98187.59
2024-01-16T06:03:21.537Z,98187.00
2024-01-16T06:05:48.103Z,98182.50
2024-01-16T06:08:16.066Z,98187.31
2024-01-16T06:10:42.500Z,98181.44
2024-01-16T06:13:08.995Z,98187.31
2024-01-16T06:15:35.708Z,98181.19
2024-01-16T06:18:02.394Z,98181.44
2024-01-16T06:20:29.260Z,98179.59
2024-01-16T06:22:55.993Z,98177.19
2024-01-16T06:25:24.176Z,98180.38
2024-01-16T06:27:50.870Z,98182.03
2024-01-16T06:30:17.887Z,98176.69
2024-01-16T06:32:44.625Z,98180.69
2024-01-16T06:35:13.422Z,98178.81
2024-01-16T06:37:40.139Z,98180.47
2024-01-16T06:40:07.497Z,98181.53
2024-01-16T06:42:35.220Z,98176.72
2024-01-16T06:45:01.709Z,98179.44
2024-01-16T06:47:28.408Z,98179.69
2024-01-16T06:49:55.017Z,98185.56
2024-01-16T06:52:21.521Z,98193.34
2024-01-16T06:54:47.917Z,98197.88
2024-01-16T06:57:14.430Z,98198.16
2024-01-16T06:59:42.197Z,98200.53
2024-01-16T07:02:08.920Z,98193.63
2024-01-16T07:04:35.732Z,98201.38
2024-01-16T07:07:02.486Z,98198.19
2024-01-16T07:09:29.029Z,98195.78
2024-01-16T07:11:55.650Z,98196.84
2024-01-16T07:14:22.158Z,98202.16
2024-01-16T07:16:50.108Z,98193.06
2024-01-16T07:19:16.698Z,98194.94
2024-01-16T07:21:43.418Z,98201.34
2024-01-16T07:24:10.048Z,98202.41
2024-01-16T07:26:36.504Z,98199.75
2024-01-16T07:29:03.012Z,98202.13
2024-01-16T07:31:29.491Z,98206.66
2024-01-16T07:33:57.462Z,98205.06
2024-01-16T07:36:24.289Z,98213.81
2024-01-16T07:38:50.815Z,98208.47
2024-01-16T07:41:17.397Z,98214.34
2024-01-16T07:43:45.511Z,98211.69
2024-01-16T07:46:13.534Z,98220.75
2024-01-16T07:48:40.183Z,98218.09
2024-01-16T07:51:08.098Z,98219.13
2024-01-16T07:53:34.932Z,98217.78
2024-01-16T07:56:01.728Z,98228.16
2024-01-16T07:58:28.245Z,98218.28
2024-01-16T08:00:54.906Z,98221.44
2024-01-16T08:03:21.393Z,98219.56
2024-01-16T08:05:47.988Z,98220.06
2024-01-16T08:08:16.226Z,98221.66
2024-01-16T08:10:42.970Z,98221.41
2024-01-16T08:13:09.545Z,98225.63
2024-01-16T08:15:36.050Z,98226.97
2024-01-16T08:18:02.895Z,98235.78
2024-01-16T08:20:29.449Z,98229.31
2024-01-16T08:22:56.002Z,98228.00
2024-01-16T08:25:24.130Z,98234.66
2024-01-16T08:27:50.607Z,98237.84
2024-01-16T08:30:17.682Z,98239.69
2024-01-16T08:32:44.560Z,98238.06
2024-01-16T08:35:11.229Z,98235.88
2024-01-16T08:37:37.727Z,98243.34
2024-01-16T08:40:04.835Z,98239.03
2024-01-16T08:42:32.864Z,98255.88
2024-01-16T08:44:59.400Z,98255.88
2024-01-16T08:47:26.082Z,98255.34
2024-01-16T08:49:52.819Z,98254.47
2024-01-16T08:52:19.366Z,98254.47
2024-01-16T08:54:45.801Z,98259.28
2024-01-16T08:57:14.481Z,98267.84
2024-01-16T08:59:44.087Z,98263.88
2024-01-16T09:02:10.595Z,98264.09
2024-01-16T09:04:37.241Z,98258.75
2024-01-16T09:07:04.332Z,98257.38
2024-01-16T09:09:31.284Z,98271.78
2024-01-16T09:11:57.840Z,98269.06
2024-01-16T09:14:24.484Z,98267.75
2024-01-16T09:16:52.304Z,98266.44
2024-01-16T09:19:18.958Z,98264.03
2024-01-16T09:21:45.500Z,98269.59
2024-01-16T09:24:11.948Z,98263.16
2024-01-16T09:26:38.618Z,98264.50
2024-01-16T09:29:05.073Z,98269.78
2024-01-16T09:31:31.513Z,98272.94
2024-01-16T09:33:59.419Z,98268.97
2024-01-16T09:36:25.828Z,98276.66
2024-01-16T09:38:52.481Z,98266.69
2024-01-16T09:41:18.916Z,98268.22
2024-01-16T09:43:47.421Z,98272.38
2024-01-16T09:46:17.101Z,98266.41
2024-01-16T09:48:45.350Z,98278.41
2024-01-16T09:51:13.915Z,98271.09
2024-01-16T09:53:40.523Z,98276.72
2024-01-16T09:56:13.593Z,98271.09
2024-01-16T09:58:40.300Z,98274.84
2024-01-16T10:01:06.833Z,98286.53
2024-01-16T10:03:35.592Z,98285.19
2024-01-16T10:06:05.113Z,98278.97
2024-01-16T10:08:33.340Z,98280.19
2024-01-16T10:11:00.105Z,98291.28
2024-01-16T10:13:26.846Z,98289.81
2024-01-16T10:15:53.582Z,98290.34
2024-01-16T10:18:24.009Z,98295.75
2024-01-16T10:20:50.613Z,98292.84
2024-01-16T10:23:23.507Z,98286.69
2024-01-16T10:26:05.786Z,98292.84
2024-01-16T10:28:32.549Z,98290.09
2024-01-16T10:31:03.204Z,98280.19
2024-01-16T10:33:30.297Z,98289.50
2024-01-16T10:36:08.929Z,98284.56
2024-01-16T10:38:36.176Z,98287.41
2024-01-16T10:41:11.207Z,98286.00
2024-01-16T10:43:38.444Z,98283.25
2024-01-16T10:46:09.710Z,98287.13
2024-01-16T10:48:36.823Z,98284.97
2024-01-16T10:51:03.632Z,98284.66
2024-01-16T10:53:34.320Z,98279.72
2024-01-16T10:56:02.055Z,98273.97
2024-01-16T10:58:31.799Z,98269.91
2024-01-16T11:01:02.557Z,98278.16
2024-01-16T11:03:36.707Z,98270.25
2024-01-16T11:06:07.337Z,98263.00
2024-01-16T11:08:35.843Z,98267.59
2024-01-16T11:11:03.615Z,98261.81
2024-01-16T11:13:33.699Z,98264.72
2024-01-16T11:16:00.494Z,98266.09
2024-01-16T11:18:28.635Z,98262.88
2024-01-16T11:21:04.926Z,98265.72
2024-01-16T11:23:34.679Z,98251.59
2024-01-16T11:26:01.430Z,98250.56
2024-01-16T11:28:29.431Z,98245.81
2024-01-16T11:30:57.818Z,98246.38
2024-01-16T11:33:43.445Z,98237.69
2024-01-16T11:36:43.393Z,98239.53
2024-01-16T11:39:11.915Z,98239.13
2024-01-16T11:41:49.840Z,98242.81
2024-01-16T11:44:37.957Z,98241.47
2024-01-16T11:47:06.943Z,98239.84
2024-01-16T11:49:33.679Z,98224.56
2024-01-16T11:52:00.653Z,98232.97
2024-01-16T11:54:27.064Z,98231.25
2024-01-16T11:57:13.802Z,98227.75
2024-01-16T11:59:58.408Z,98231.75
2024-01-16T12:02:30.795Z,98235.53
2024-01-16T12:04:57.421Z,98230.97
2024-01-16T12:07:24.119Z,98229.19
2024-01-16T12:09:50.661Z,98223.22
2024-01-16T12:12:17.637Z,98229.91
2024-01-16T12:14:52.435Z,98224.81
2024-01-16T12:17:18.972Z,98225.00
2024-01-16T12:19:46.996Z,98222.81
2024-01-16T12:22:15.337Z,98217.81
2024-01-16T12:24:42.331Z,98211.94
2024-01-16T12:27:08.888Z,98211.16
2024-01-16T12:29:36.237Z,98210.72
2024-01-16T12:32:06.672Z,98210.72
2024-01-16T12:34:33.286Z,98216.44
2024-01-16T12:37:06.959Z,98212.94
2024-01-16T12:39:33.588Z,98205.72
2024-01-16T12:42:00.546Z,98205.44
2024-01-16T12:44:27.935Z,98208.44
2024-01-16T12:46:55.074Z,98212.06
2024-01-16T12:49:21.920Z,98205.25
2024-01-16T12:51:48.525Z,98210.25
2024-01-16T12:54:18.079Z,98211.03
2024-01-16T12:56:44.758Z,98194.88
2024-01-16T13:01:41.158Z,98184.00
2024-01-16T13:04:08.012Z,98184.47
2024-01-16T13:06:35.273Z,98171.63
2024-01-16T13:09:09.095Z,98161.03
2024-01-16T13:11:47.995Z,98159.19
2024-01-16T13:14:14.835Z,98149.50
2024-01-16T13:16:41.370Z,98147.66
2024-01-16T13:19:07.905Z,98150.34
2024-01-16T13:21:34.373Z,98142.31
2024-01-16T13:24:00.768Z,98149.34
2024-01-16T13:26:27.262Z,98135.81
2024-01-16T13:28:55.160Z,98130.25
2024-01-16T13:31:21.888Z,98134.81
2024-01-16T13:33:48.634Z,98132.44
2024-01-16T13:36:16.724Z,98130.19
2024-01-16T13:38:43.730Z,98134.56
2024-01-16T13:41:10.526Z,98137.63
2024-01-16T13:43:37.003Z,98131.28
2024-01-16T13:46:04.938Z,98128.91
2024-01-16T13:48:31.668Z,98133.97
2024-01-16T13:50:58.212Z,98134.88
2024-01-16T13:53:24.905Z,98145.47
2024-01-16T13:55:51.861Z,98154.47
2024-01-16T13:58:18.337Z,98165.19
2024-01-16T14:00:45.089Z,98166.66
2024-01-16T14:03:14.053Z,98164.31
2024-01-16T14:05:41.179Z,98163.47
2024-01-16T14:08:07.673Z,98166.00
2024-01-16T14:10:34.426Z,98154.53
2024-01-16T14:13:00.980Z,98154.63
2024-01-16T14:15:27.448Z,98154.34
2024-01-16T14:17:56.069Z,98144.41
2024-01-16T14:20:27.560Z,98143.38
2024-01-16T14:22:54.978Z,98136.22
2024-01-16T14:25:22.002Z,98138.41
2024-01-16T14:27:56.479Z,98141.88
2024-01-16T14:30:23.016Z,98141.88
2024-01-16T14:32:49.627Z,98147.59
2024-01-16T14:35:16.126Z,98150.84
2024-01-16T14:37:44.553Z,98150.56
2024-01-16T14:40:11.486Z,98146.84
2024-01-16T14:42:37.931Z,98140.50
2024-01-16T14:45:05.321Z,98145.53
2024-01-16T14:47:31.984Z,98141.53
2024-01-16T14:49:58.488Z,98138.84
2024-01-16T14:52:25.093Z,98132.19
2024-01-16T14:54:52.884Z,98130.38
2024-01-16T14:57:19.604Z,98132.16
2024-01-16T14:59:46.063Z,98133.22
2024-01-16T15:02:12.439Z,98140.63
2024-01-16T15:04:39.383Z,98141.25
2024-01-16T15:07:05.908Z,98150.97
2024-01-16T15:09:32.527Z,98154.72
2024-01-16T15:12:00.558Z,98166.03
2024-01-16T15:14:27.148Z,98159.63
2024-01-16T15:16:53.857Z,98165.06
2024-01-16T15:19:20.481Z,98172.63
2024-01-16T15:21:46.989Z,98166.56
2024-01-16T15:24:14.389Z,98167.09
2024-01-16T15:26:41.113Z,98169.84
2024-01-16T15:29:09.302Z,98161.28
2024-01-16T15:31:35.785Z,98159.97
2024-01-16T15:34:02.255Z,98162.44
2024-01-16T15:36:28.787Z,98166.44
2024-01-16T15:38:55.591Z,98161.94
2024-01-16T15:41:22.218Z,98171.34
2024-01-16T15:43:48.744Z,98161.22
2024-01-16T15:46:16.577Z,98174.91
2024-01-16T15:48:43.171Z,98173.03
2024-01-16T15:51:10.800Z,98174.44
2024-01-16T15:53:37.729Z,98169.69
2024-01-16T15:56:04.761Z,98165.16
2024-01-16T15:58:31.289Z,98170.00
2024-01-16T16:00:57.761Z,98167.06
2024-01-16T16:03:26.547Z,98169.22
2024-01-16T16:05:53.327Z,98156.72
2024-01-16T16:08:19.963Z,98164.47
2024-01-16T16:10:46.870Z,98162.63
2024-01-16T16:13:13.383Z,98158.13
2024-01-16T16:15:40.494Z,98146.91
2024-01-16T16:18:07.436Z,98153.31
2024-01-16T16:20:35.369Z,98160.03
2024-01-16T16:23:02.105Z,98154.16
2024-01-16T16:25:28.699Z,98154.22
2024-01-16T16:27:55.166Z,98167.59
2024-01-16T16:30:21.843Z,98156.94
2024-01-16T16:32:48.405Z,98153.72
2024-01-16T16:35:15.216Z,98159.09
2024-01-16T16:37:43.074Z,98150.03
2024-01-16T16:40:10.590Z,98153.28
2024-01-16T16:42:37.309Z,98151.69
2024-01-16T16:45:04.636Z,98141.84
2024-01-16T16:47:31.229Z,98154.66
2024-01-16T16:49:57.782Z,98141.84
2024-01-16T16:52:24.328Z,98150.91
2024-01-16T16:54:52.047Z,98154.66
2024-01-16T16:57:18.574Z,98162.13
2024-01-16T16:59:45.044Z,98161.84
2024-01-16T17:02:11.623Z,98162.94
2024-01-16T17:04:38.354Z,98176.28
2024-01-16T17:07:05.231Z,98176.03
2024-01-16T17:09:31.805Z,98168.03
2024-01-16T17:11:59.819Z,98171.00
2024-01-16T17:14:26.619Z,98173.66
2024-01-16T17:16:53.091Z,98173.97
2024-01-16T17:19:19.773Z,98186.50
2024-01-16T17:21:46.181Z,98180.34
2024-01-16T17:24:12.628Z,98177.44
2024-01-16T17:26:39.429Z,98189.44
2024-01-16T17:29:07.460Z,98180.88
2024-01-16T17:31:33.871Z,98180.63
2024-01-16T17:34:00.582Z,98173.69
2024-01-16T17:36:27.161Z,98175.28
2024-01-16T17:38:53.988Z,98172.88
2024-01-16T17:41:20.477Z,98163.28
2024-01-16T17:43:47.020Z,98167.25
2024-01-16T17:46:14.866Z,98162.72
2024-01-16T17:48:41.582Z,98159.00
2024-01-16T17:51:08.909Z,98162.16
2024-01-16T17:53:35.404Z,98159.22
2024-01-16T17:56:01.880Z,98153.66
2024-01-16T17:58:28.329Z,98140.06
2024-01-16T18:00:54.936Z,98141.38
2024-01-16T18:03:32.681Z,98143.25
2024-01-16T18:06:08.178Z,98141.38
2024-01-16T18:08:34.936Z,98133.66
2024-01-16T18:11:01.410Z,98136.34
2024-01-16T18:13:28.156Z,98136.88
2024-01-16T18:15:54.625Z,98131.28
2024-01-16T18:18:21.502Z,98126.75
2024-01-16T18:20:49.448Z,98136.63
2024-01-16T18:23:16.001Z,98131.03
2024-01-16T18:25:42.459Z,98121.69
2024-01-16T18:28:08.895Z,98123.28
2024-01-16T18:30:35.679Z,98123.28
2024-01-16T18:33:02.417Z,98119.03
2024-01-16T18:35:29.253Z,98123.03
2024-01-16T18:37:57.143Z,98123.31
2024-01-16T18:40:23.587Z,98120.41
2024-01-16T18:42:50.213Z,98118.78
2024-01-16T18:45:20.036Z,98119.59
2024-01-16T18:47:46.620Z,98118.78
2024-01-16T18:50:15.409Z,98114.00
2024-01-16T18:52:42.129Z,98112.41
2024-01-16T18:55:10.579Z,98112.72
2024-01-16T18:57:37.531Z,98111.09
2024-01-16T19:00:06.555Z,98101.28
2024-01-16T19:02:34.390Z,98100.19
2024-01-16T19:05:01.027Z,98098.88
2024-01-16T19:07:27.938Z,98093.03
2024-01-16T19:09:54.390Z,98095.69
2024-01-16T19:12:22.400Z,98093.28
2024-01-16T19:14:49.250Z,98098.34
2024-01-16T19:17:15.846Z,98101.84
2024-01-16T19:19:42.711Z,98092.25
2024-01-16T19:22:10.791Z,98093.88
2024-01-16T19:24:37.212Z,98093.34
2024-01-16T19:27:07.407Z,98085.63
2024-01-16T19:29:35.354Z,98083.22
2024-01-16T19:32:01.860Z,98086.69
2024-01-16T19:34:28.587Z,98079.25
2024-01-16T19:36:55.032Z,98076.81
2024-01-16T19:39:21.436Z,98075.50
2024-01-16T19:41:48.062Z,98074.19
2024-01-16T19:44:14.936Z,98063.25
2024-01-16T19:46:43.324Z,98079.53
2024-01-16T19:49:10.334Z,98081.63
2024-01-16T19:51:39.891Z,98068.59
2024-01-16T19:54:06.569Z,98070.19
2024-01-16T19:56:33.559Z,98073.91
2024-01-16T19:58:59.976Z,98069.69
2024-01-16T20:01:29.725Z,98066.22
2024-01-16T20:03:57.880Z,98068.84
2024-01-16T20:06:24.452Z,98067.56
2024-01-16T20:08:51.914Z,98064.06
2024-01-16T20:11:25.631Z,98064.34
2024-01-16T20:13:52.107Z,98055.81
2024-01-16T20:16:18.506Z,98053.44
2024-01-16T20:18:45.221Z,98064.34
2024-01-16T20:21:13.265Z,98060.59
2024-01-16T20:23:39.880Z,98043.84
2024-01-16T20:26:06.517Z,98042.75
2024-01-16T20:28:32.894Z,98039.31
2024-01-16T20:30:59.673Z,98038.25
2024-01-16T20:33:26.261Z,98031.84
2024-01-16T20:35:52.835Z,98028.34
2024-01-16T20:38:20.758Z,98021.69
2024-01-16T20:40:47.523Z,98021.69
2024-01-16T20:43:16.318Z,98015.81
2024-01-16T20:45:42.761Z,98016.88
2024-01-16T20:48:09.403Z,98016.06
2024-01-16T20:50:35.943Z,97998.50
2024-01-16T20:53:02.640Z,97995.03
2024-01-16T20:55:30.405Z,98000.31
2024-01-16T20:57:57.075Z,97995.00
2024-01-16T21:00:23.494Z,97983.81
2024-01-16T21:02:50.004Z,97981.41
2024-01-16T21:05:16.629Z,97981.94
2024-01-16T21:07:43.484Z,97983.22
2024-01-16T21:10:10.522Z,97981.88
2024-01-16T21:12:38.356Z,97987.19
2024-01-16T21:15:05.945Z,97993.00
2024-01-16T21:17:32.712Z,97994.06
2024-01-16T21:19:59.439Z,97991.94
2024-01-16T21:22:33.336Z,97981.03
2024-01-16T21:25:03.554Z,97977.81
2024-01-16T21:27:29.998Z,97983.63
2024-01-16T21:29:57.999Z,97982.56
2024-01-16T21:32:24.628Z,97988.63
2024-01-16T21:34:51.066Z,97984.63
2024-01-16T21:37:17.896Z,97985.97
2024-01-16T21:39:44.349Z,97985.66
2024-01-16T21:42:10.822Z,97980.66
2024-01-16T21:44:37.308Z,97978.00
2024-01-16T21:47:05.234Z,97980.66
2024-01-16T21:49:31.748Z,97976.66
2024-01-16T21:51:58.251Z,97964.72
2024-01-16T21:54:24.911Z,97971.41
2024-01-16T21:56:51.462Z,97964.25
2024-01-16T21:59:17.950Z,97965.06
2024-01-16T22:01:45.659Z,97958.69
2024-01-16T22:04:13.721Z,97958.94
2024-01-16T22:06:40.189Z,97955.28
2024-01-16T22:09:07.140Z,97948.91
2024-01-16T22:11:33.717Z,97947.56
2024-01-16T22:14:00.173Z,97936.38
2024-01-16T22:16:26.593Z,97932.63
2024-01-16T22:18:55.769Z,97934.75
2024-01-16T22:21:25.173Z,97926.72
2024-01-16T22:23:51.713Z,97928.81
2024-01-16T22:26:18.160Z,97924.00
2024-01-16T22:28:44.594Z,97913.38
2024-01-16T22:31:11.135Z,97908.84
2024-01-16T22:33:37.995Z,97901.91
2024-01-16T22:36:05.536Z,97895.78
2024-01-16T22:38:33.669Z,97902.09
2024-01-16T22:41:00.088Z,97893.09
2024-01-16T22:43:26.544Z,97891.19
2024-01-16T22:45:53.132Z,97890.09
2024-01-16T22:48:19.849Z,97890.38
2024-01-16T22:50:46.762Z,97888.75
2024-01-16T22:53:13.386Z,97885.56
2024-01-16T22:55:43.306Z,97874.66
2024-01-16T22:58:09.997Z,97873.59
2024-01-16T23:00:36.812Z,97877.81
2024-01-16T23:03:03.732Z,97860.84
2024-01-16T23:05:30.418Z,97862.16
2024-01-16T23:07:56.956Z,97854.44
2024-01-16T23:10:23.579Z,97854.19
2024-01-16T23:12:51.459Z,97852.66
2024-01-16T23:15:18.079Z,97848.91
2024-01-16T23:17:44.783Z,97842.78
2024-01-16T23:20:12.715Z,97845.91
2024-01-16T23:22:39.188Z,97834.22
2024-01-16T23:25:06.947Z,97838.44
2024-01-16T23:27:33.767Z,97826.75
2024-01-16T23:30:01.595Z,97820.66
2024-01-16T23:32:28.100Z,97827.00
2024-01-16T23:34:54.520Z,97820.38
2024-01-16T23:37:20.996Z,97812.69
2024-01-16T23:39:47.410Z,97815.59
2024-01-16T23:42:14.121Z,97815.28
2024-01-16T23:44:40.545Z,97811.84
2024-01-16T23:47:08.579Z,97804.16
2024-01-16T23:49:34.999Z,97806.50
2024-01-16T23:52:01.588Z,97798.00
2024-01-16T23:54:28.440Z,97796.69
2024-01-16T23:56:54.916Z,97786.84
2024-01-16T23:59:21.360Z,97784.44
